createdAt,value
2023-02-13T00:03:18.108Z,8.9
2023-02-13T00:08:56.734Z,8.8
2023-02-13T00:14:34.804Z,8.7
2023-02-13T00:20:10.904Z,8.6
2023-02-13T00:25:46.239Z,8.6
2023-02-13T00:31:24.954Z,8.5
2023-02-13T00:37:01.716Z,8.5
2023-02-13T00:42:37.641Z,8.4
2023-02-13T00:48:12.648Z,8.3
2023-02-13T00:53:48.021Z,8.3
2023-02-13T00:59:44.249Z,8.2
2023-02-13T01:05:40.274Z,8.2
2023-02-13T01:11:14.959Z,8.2
2023-02-13T01:19:34.428Z,8.1
2023-02-13T01:25:20.406Z,8.1
2023-02-13T01:30:55.375Z,8.1
2023-02-13T01:36:35.243Z,8
2023-02-13T01:42:13.062Z,8
2023-02-13T01:47:50.411Z,8
2023-02-13T01:54:59.097Z,7.9
2023-02-13T02:00:41.619Z,7.9
2023-02-13T02:07:03.353Z,7.9
2023-02-13T02:12:38.343Z,7.8
2023-02-13T02:18:37.177Z,7.8
2023-02-13T02:24:11.966Z,7.8
2023-02-13T02:29:47.247Z,7.7
2023-02-13T02:35:43.334Z,7.8
2023-02-13T02:41:39.343Z,7.8
2023-02-13T02:47:15.196Z,7.7
2023-02-13T02:52:56.524Z,7.7
2023-02-13T02:58:34.292Z,7.7
2023-02-13T03:04:09.386Z,7.6
2023-02-13T03:09:58.456Z,7.6
2023-02-13T03:15:40.443Z,7.6
2023-02-13T03:21:24.315Z,7.6
2023-02-13T03:26:58.971Z,7.6
2023-02-13T03:32:34.122Z,7.6
2023-02-13T03:38:17.677Z,7.6
2023-02-13T03:43:52.682Z,7.6
2023-02-13T03:49:43.124Z,7.6
2023-02-13T03:55:26.307Z,7.5
2023-02-13T04:01:03.713Z,7.4
2023-02-13T04:06:39.466Z,7.3
2023-02-13T04:12:26.260Z,7.3
2023-02-13T04:18:03.933Z,7.3
2023-02-13T04:23:39.121Z,7.2
2023-02-13T04:29:22.476Z,7.2
2023-02-13T04:34:57.964Z,7.2
2023-02-13T04:40:41.100Z,7.2
2023-02-13T04:46:16.274Z,7.2
2023-02-13T04:51:52.328Z,7.2
2023-02-13T04:57:29.847Z,7.2
2023-02-13T05:03:08.223Z,7.2
2023-02-13T05:09:02.881Z,7.1
2023-02-13T05:14:48.819Z,7
2023-02-13T05:21:00.919Z,7.1
2023-02-13T05:27:07.828Z,7
2023-02-13T05:33:03.437Z,7
2023-02-13T05:38:41.446Z,7
2023-02-13T05:44:17.117Z,7
2023-02-13T05:50:06.435Z,7
2023-02-13T05:55:41.950Z,7
2023-02-13T06:02:02.010Z,6.9
2023-02-13T06:07:49.532Z,6.9
2023-02-13T06:14:01.653Z,6.9
2023-02-13T06:19:37.164Z,6.8
2023-02-13T06:25:22.684Z,6.8
2023-02-13T06:30:57.818Z,6.8
2023-02-13T06:36:38.190Z,6.8
2023-02-13T06:42:28.999Z,6.8
2023-02-13T06:48:09.701Z,6.8
2023-02-13T06:53:44.930Z,5.6
2023-02-13T06:59:28.782Z,4.5
2023-02-13T07:05:03.896Z,4.2
2023-02-13T07:10:38.975Z,4.1
2023-02-13T07:16:14.836Z,4
2023-02-13T07:21:51.627Z,3.9
2023-02-13T07:27:26.754Z,4.1
2023-02-13T07:33:07.895Z,4.5
2023-02-13T07:38:44.650Z,4.7
2023-02-13T07:44:20.328Z,4.7
2023-02-13T07:49:56.782Z,5.2
2023-02-13T07:55:33.197Z,5.2
2023-02-13T08:01:08.677Z,5.6
2023-02-13T08:06:44.247Z,5.7
2023-02-13T08:12:19.396Z,5.5
2023-02-13T08:17:58.248Z,5.7
2023-02-13T08:23:34.445Z,6.1
2023-02-13T08:29:10.418Z,6.3
2023-02-13T08:34:46.019Z,6.7
2023-02-13T08:40:30.831Z,7
2023-02-13T08:46:08.165Z,7.3
2023-02-13T08:52:14.193Z,7.6
2023-02-13T08:58:14.673Z,8.1
2023-02-13T09:03:51.120Z,8.3
2023-02-13T09:09:32.783Z,8.6
2023-02-13T09:15:15.290Z,9
2023-02-13T09:20:51.166Z,9.2
2023-02-13T09:26:27.102Z,9.7
2023-02-13T09:32:11.744Z,10
2023-02-13T09:37:50.968Z,10.3
2023-02-13T09:43:27.314Z,10.5
2023-02-13T09:49:02.508Z,10.7
2023-02-13T09:54:38.118Z,10.8
2023-02-13T10:00:13.579Z,11
2023-02-13T10:06:08.177Z,11.3
2023-02-13T10:11:43.377Z,11.6
2023-02-13T10:17:18.914Z,11.9
2023-02-13T10:22:54.899Z,12.2
2023-02-13T10:28:30.720Z,12
2023-02-13T10:34:07.277Z,12.5
2023-02-13T10:39:43.483Z,13
2023-02-13T10:45:22.358Z,13.4
2023-02-13T10:50:58.677Z,13.6
2023-02-13T10:56:33.891Z,13.9
2023-02-13T11:02:09.720Z,14
2023-02-13T11:07:53.570Z,14.3
2023-02-13T11:13:46.343Z,14.4
2023-02-13T11:19:29.164Z,14.6
2023-02-13T11:25:04.967Z,14.8
2023-02-13T11:30:56.343Z,15
2023-02-13T11:37:27.189Z,15.1
2023-02-13T11:43:11.785Z,15.3
2023-02-13T11:49:14.664Z,15.5
2023-02-13T11:54:50.468Z,15.5
2023-02-13T12:00:28.784Z,15.5
2023-02-13T12:06:04.233Z,15.6
2023-02-13T12:11:39.985Z,15.9
2023-02-13T12:17:25.593Z,16.1
2023-02-13T12:23:07.851Z,16.1
2023-02-13T12:28:43.326Z,16.5
2023-02-13T12:34:19.117Z,16.5
2023-02-13T12:39:54.706Z,16.5
2023-02-13T12:45:30.186Z,17.1
2023-02-13T12:51:06.914Z,17.5
2023-02-13T12:56:41.942Z,17.5
2023-02-13T13:02:38.077Z,17.7
2023-02-13T13:08:14.351Z,18
2023-02-13T13:13:49.594Z,18.4
2023-02-13T13:19:25.540Z,18.7
2023-02-13T13:25:00.487Z,18.9
2023-02-13T13:30:36.307Z,19.2
2023-02-13T13:36:13.424Z,19.4
2023-02-13T13:41:49.857Z,19.8
2023-02-13T13:48:07.704Z,20.2
2023-02-13T13:53:40.705Z,21
2023-02-13T13:59:15.968Z,21.1
2023-02-13T14:04:51.353Z,22
2023-02-13T14:10:48.135Z,23.4
2023-02-13T14:16:23.491Z,25.1
2023-02-13T14:22:06.896Z,26.8
2023-02-13T14:27:42.080Z,26.7
2023-02-13T14:33:18.998Z,26.8
2023-02-13T14:38:55.062Z,29.2
2023-02-13T14:44:42.640Z,29.5
2023-02-13T14:50:18.243Z,29.7
2023-02-13T14:55:53.557Z,29
2023-02-13T15:01:29.325Z,29
2023-02-13T15:07:05.761Z,29.2
2023-02-13T15:12:42.024Z,28.6
2023-02-13T15:18:17.650Z,28.6
2023-02-13T15:23:53.483Z,28.1
2023-02-13T15:29:35.404Z,24.7
2023-02-13T15:35:25.231Z,22.3
2023-02-13T15:41:00.794Z,20.7
2023-02-13T15:46:57.592Z,19.2
2023-02-13T15:52:30.326Z,18.4
2023-02-13T15:58:07.019Z,18.1
2023-02-13T16:03:41.904Z,17.3
2023-02-13T16:09:17.272Z,17
2023-02-13T16:14:57.052Z,16.6
2023-02-13T16:20:32.775Z,16.1
2023-02-13T16:26:07.972Z,15.8
2023-02-13T16:31:43.627Z,15.5
2023-02-13T16:37:22.672Z,15.2
2023-02-13T16:42:57.592Z,15.1
2023-02-13T16:48:54.858Z,14.9
2023-02-13T16:54:27.449Z,14.7
2023-02-13T17:00:05.823Z,14.2
2023-02-13T17:05:41.580Z,14.3
2023-02-13T17:11:25.601Z,14
2023-02-13T17:17:03.222Z,13.6
2023-02-13T17:22:38.496Z,13.4
2023-02-13T17:28:14.544Z,13.3
2023-02-13T17:33:49.884Z,13.3
2023-02-13T17:39:24.705Z,13.1
2023-02-13T17:45:00.950Z,13
2023-02-13T17:50:37.680Z,12.8
2023-02-13T17:56:12.907Z,12.4
2023-02-13T18:01:48.032Z,13.4
2023-02-13T18:07:23.974Z,13.6
2023-02-13T18:13:03.139Z,13.6
2023-02-13T18:18:38.192Z,13.6
2023-02-13T18:24:23.737Z,13.6
2023-02-13T18:29:59.291Z,13.6
2023-02-13T18:35:35.417Z,13.6
2023-02-13T18:41:10.533Z,13.6
2023-02-13T18:47:07.396Z,13.5
2023-02-13T18:52:40.269Z,13.4
2023-02-13T18:58:15.435Z,13.4
2023-02-13T19:03:51.522Z,13.3
2023-02-13T19:09:27.980Z,13.3
2023-02-13T19:15:06.789Z,13.2
2023-02-13T19:20:41.890Z,13.1
2023-02-13T19:26:23.451Z,13
2023-02-13T19:31:58.498Z,12.9
2023-02-13T19:37:44.007Z,12.8
2023-02-13T19:43:21.469Z,12.7
2023-02-13T19:49:18.028Z,12.6
2023-02-13T19:54:51.496Z,12.6
2023-02-13T20:00:34.625Z,12.5
2023-02-13T20:06:10.125Z,12.5
2023-02-13T20:11:50.724Z,12.4
2023-02-13T20:17:25.732Z,12.3
2023-02-13T20:23:00.845Z,12.2
2023-02-13T20:28:36.268Z,12.1
2023-02-13T20:34:11.092Z,12
2023-02-13T20:39:46.097Z,12
2023-02-13T20:45:21.663Z,11.9
2023-02-13T20:50:57.381Z,11.8
2023-02-13T20:56:39.201Z,11.7
2023-02-13T21:02:14.698Z,11.6
2023-02-13T21:07:51.508Z,11.6
2023-02-13T21:13:31.017Z,11.5
2023-02-13T21:19:05.895Z,11.4
2023-02-13T21:24:51.408Z,11.4
2023-02-13T21:30:26.492Z,11.3
2023-02-13T21:36:06.229Z,11.2
2023-02-13T21:41:54.831Z,11.1
2023-02-13T21:47:34.653Z,11
2023-02-13T21:53:10.114Z,11
2023-02-13T21:58:44.920Z,10.9
2023-02-13T22:04:22.311Z,10.9
2023-02-13T22:10:20.530Z,10.8
2023-02-13T22:15:55.842Z,10.8
2023-02-13T22:21:31.502Z,10.8
2023-02-13T22:27:06.954Z,10.8
2023-02-13T22:32:41.981Z,10.7
2023-02-13T22:38:25.233Z,10.7
2023-02-13T22:44:00.445Z,10.6
2023-02-13T22:49:35.527Z,10.5
2023-02-13T22:55:11.096Z,10.5
2023-02-13T23:00:46.138Z,10.4
2023-02-13T23:06:27.557Z,10.4
2023-02-13T23:12:02.889Z,10.3
2023-02-13T23:17:45.200Z,10.3
2023-02-13T23:23:20.255Z,10.2
2023-02-13T23:28:55.309Z,10.1
2023-02-13T23:34:31.464Z,10
2023-02-13T23:40:19.134Z,10
2023-02-13T23:46:08.349Z,9.9
2023-02-13T23:51:45.651Z,9.9
2023-02-13T23:57:28.692Z,9.9
